Time;durP1;ratioP1;P1;durP2;ratioP2;P2;SDS_P1;SDS_P2;PMS_P1;PMS_P2;Temp;Humidity;BMP_temperature;BMP_pressure;BME280_temperature;BME280_humidity;BME280_pressure;Samples;Min_cycle;Max_cycle;Signal;HPM_P1;HPM_P2
2023/08/11 00:02:22;;;;;;;7.28;2.97;;;19.10;99.90;;;;;;4885727;29;20173;-70
2023/08/11 00:04:50;;;;;;;5.38;2.70;;;19.10;99.90;;;;;;4901056;29;20124;-71
2023/08/11 00:07:16;;;;;;;5.28;3.03;;;19.10;99.90;;;;;;4885667;29;20041;-69
2023/08/11 00:09:42;;;;;;;6.28;3.30;;;19.10;99.90;;;;;;4897395;29;20052;-71
2023/08/11 00:12:07;;;;;;;5.90;3.40;;;19.00;99.90;;;;;;4882007;29;20049;-71
2023/08/11 00:14:33;;;;;;;4.10;3.13;;;18.90;99.90;;;;;;4899506;29;20100;-70
2023/08/11 00:16:59;;;;;;;4.90;3.20;;;18.90;99.90;;;;;;4900063;29;20132;-71
2023/08/11 00:19:25;;;;;;;7.45;3.00;;;18.80;99.90;;;;;;4873962;29;20112;-70
2023/08/11 00:21:51;;;;;;;5.93;3.15;;;18.80;99.90;;;;;;4879100;29;20037;-70
2023/08/11 00:24:17;;;;;;;6.97;2.95;;;18.70;99.90;;;;;;4886534;29;20057;-70
2023/08/11 00:26:43;;;;;;;4.93;3.20;;;18.70;99.90;;;;;;4900006;29;20052;-70
2023/08/11 00:29:08;;;;;;;9.18;3.70;;;18.60;99.90;;;;;;4880912;29;20053;-71
2023/08/11 00:31:35;;;;;;;9.23;3.47;;;18.50;99.90;;;;;;4884156;29;20073;-69
2023/08/11 00:34:01;;;;;;;5.90;3.22;;;18.50;99.90;;;;;;4880417;29;20503;-70
2023/08/11 00:36:27;;;;;;;5.80;3.63;;;18.40;99.90;;;;;;4875525;29;20052;-70
2023/08/11 00:38:52;;;;;;;6.45;3.30;;;18.40;99.90;;;;;;4899421;29;20055;-70
2023/08/11 00:41:18;;;;;;;5.53;3.28;;;18.30;99.90;;;;;;4896770;29;20049;-71
2023/08/11 00:43:44;;;;;;;7.13;3.38;;;18.30;99.90;;;;;;4887242;29;20063;-71
2023/08/11 00:46:12;;;;;;;5.72;3.33;;;18.20;99.90;;;;;;4888024;29;20049;-78
2023/08/11 00:48:40;;;;;;;8.50;3.58;;;18.20;99.90;;;;;;4898783;29;20056;-70
2023/08/11 00:51:06;;;;;;;7.22;3.97;;;18.10;99.90;;;;;;4897544;29;20051;-69
2023/08/11 00:53:33;;;;;;;7.72;4.03;;;18.10;99.90;;;;;;4895066;29;20139;-70
2023/08/11 00:56:02;;;;;;;5.75;3.55;;;18.10;99.90;;;;;;4897208;29;20040;-70
2023/08/11 00:58:29;;;;;;;7.10;4.70;;;18.10;99.90;;;;;;4874399;29;20052;-70
2023/08/11 01:00:59;;;;;;;6.63;4.10;;;18.00;99.90;;;;;;4894107;29;20587;-70
2023/08/11 01:03:25;;;;;;;10.27;4.38;;;18.00;99.90;;;;;;4887033;29;20123;-70
2023/08/11 01:06:08;;;;;;;8.13;4.00;;;18.00;99.90;;;;;;4882172;29;20128;-70
2023/08/11 01:08:48;;;;;;;6.82;4.47;;;18.00;99.90;;;;;;4888234;29;20115;-70
2023/08/11 01:11:56;;;;;;;7.80;4.45;;;18.00;99.90;;;;;;4893372;29;20411;-71
2023/08/11 01:14:32;;;;;;;5.95;4.38;;;18.00;99.90;;;;;;4884760;29;20116;-69
2023/08/11 01:16:59;;;;;;;7.47;4.80;;;18.00;99.90;;;;;;4897879;29;20040;-70
2023/08/11 01:19:32;;;;;;;8.27;5.10;;;17.90;99.90;;;;;;4881415;29;20053;-71
2023/08/11 01:22:00;;;;;;;9.43;5.53;;;17.90;99.90;;;;;;4892881;29;20150;-70
2023/08/11 01:24:27;;;;;;;7.35;5.45;;;17.90;99.90;;;;;;4883487;29;20064;-70
2023/08/11 01:26:53;;;;;;;9.75;5.25;;;17.90;99.90;;;;;;4882712;29;20045;-69
2023/08/11 01:29:19;;;;;;;8.73;5.40;;;17.90;99.90;;;;;;4883435;29;20053;-70
2023/08/11 01:31:45;;;;;;;8.68;5.55;;;17.90;99.90;;;;;;4889787;29;20049;-70
2023/08/11 01:34:11;;;;;;;10.15;5.70;;;17.90;99.90;;;;;;4897773;29;20055;-70
2023/08/11 01:36:40;;;;;;;7.90;5.63;;;17.90;99.90;;;;;;4887342;29;20045;-71
2023/08/11 01:39:07;;;;;;;8.73;5.15;;;17.80;99.90;;;;;;4870105;29;20558;-69
2023/08/11 01:41:33;;;;;;;10.15;6.07;;;17.80;99.90;;;;;;4888333;29;20045;-69
2023/08/11 01:43:59;;;;;;;7.35;5.05;;;17.80;99.90;;;;;;4893615;29;20134;-70
2023/08/11 01:46:28;;;;;;;11.45;5.00;;;17.80;99.90;;;;;;4897559;29;20048;-70
2023/08/11 01:48:56;;;;;;;7.93;6.15;;;17.70;99.90;;;;;;4886899;29;20091;-70
2023/08/11 01:51:24;;;;;;;9.23;6.30;;;17.70;99.90;;;;;;4897872;29;20402;-70
2023/08/11 01:53:51;;;;;;;9.32;5.93;;;17.70;99.90;;;;;;4897112;29;20100;-70
2023/08/11 01:56:19;;;;;;;10.25;6.00;;;17.70;99.90;;;;;;4897184;29;20131;-70
2023/08/11 01:58:45;;;;;;;8.18;5.90;;;17.60;99.90;;;;;;4891332;29;20045;-71
2023/08/11 02:01:13;;;;;;;8.82;5.65;;;17.60;99.90;;;;;;4880785;29;20101;-70
2023/08/11 02:03:39;;;;;;;6.75;5.25;;;17.60;99.90;;;;;;4902265;29;20075;-70
2023/08/11 02:06:05;;;;;;;9.90;5.97;;;17.60;99.90;;;;;;4901072;29;20131;-70
2023/08/11 02:08:32;;;;;;;8.73;6.82;;;17.50;99.90;;;;;;4893473;29;20041;-69
2023/08/11 02:10:58;;;;;;;10.35;6.90;;;17.50;99.90;;;;;;4894045;29;20056;-69
2023/08/11 02:13:24;;;;;;;9.05;7.18;;;17.50;99.90;;;;;;4892716;29;20067;-69
2023/08/11 02:15:49;;;;;;;14.88;8.20;;;17.50;99.90;;;;;;4885722;29;20053;-70
2023/08/11 02:18:15;;;;;;;9.48;6.53;;;17.50;99.90;;;;;;4890560;29;20056;-70
2023/08/11 02:20:41;;;;;;;11.93;8.45;;;17.50;99.90;;;;;;4895519;29;20040;-71
2023/08/11 02:23:08;;;;;;;10.77;7.35;;;17.50;99.90;;;;;;4889000;29;20041;-70
2023/08/11 02:25:35;;;;;;;10.68;8.57;;;17.50;99.90;;;;;;4893895;29;20045;-69
2023/08/11 02:28:00;;;;;;;12.27;8.93;;;17.50;99.90;;;;;;4897040;29;20052;-70
2023/08/11 02:30:29;;;;;;;12.40;8.95;;;17.50;99.90;;;;;;4893446;29;20044;-71
2023/08/11 02:32:55;;;;;;;11.95;8.70;;;17.50;99.90;;;;;;4880339;29;20056;-70
2023/08/11 02:35:22;;;;;;;10.07;8.23;;;17.40;99.90;;;;;;4885712;29;20112;-69
2023/08/11 02:37:48;;;;;;;12.00;8.63;;;17.40;99.90;;;;;;4893860;29;20139;-71
2023/08/11 02:40:14;;;;;;;14.88;9.00;;;17.40;99.90;;;;;;4894609;29;20127;-69
2023/08/11 02:42:53;;;;;;;12.20;9.43;;;17.40;99.90;;;;;;4896755;29;20056;-69
2023/08/11 02:45:18;;;;;;;14.27;10.00;;;17.40;99.90;;;;;;4884292;29;20053;-69
2023/08/11 02:47:44;;;;;;;10.98;9.02;;;17.40;99.90;;;;;;4878407;29;20807;-75
2023/08/11 02:50:10;;;;;;;14.32;10.43;;;17.40;99.90;;;;;;4887796;29;20105;-69
2023/08/11 02:52:37;;;;;;;12.00;9.27;;;17.40;99.90;;;;;;4871888;29;20053;-69
2023/08/11 02:55:04;;;;;;;12.85;9.05;;;17.40;99.90;;;;;;4876040;29;20560;-70
2023/08/11 02:57:31;;;;;;;12.43;9.40;;;17.40;99.90;;;;;;4876851;29;20087;-70
2023/08/11 02:59:57;;;;;;;12.90;9.25;;;17.40;99.90;;;;;;4878044;29;20534;-70
2023/08/11 03:02:22;;;;;;;11.27;9.25;;;17.30;99.90;;;;;;4877153;29;20076;-69
2023/08/11 03:04:48;;;;;;;11.80;9.68;;;17.30;99.90;;;;;;4877084;29;20120;-69
2023/08/11 03:07:16;;;;;;;14.38;9.75;;;17.30;99.90;;;;;;4878634;29;20106;-70
2023/08/11 03:09:42;;;;;;;10.70;9.18;;;17.30;99.90;;;;;;4869207;29;20061;-70
2023/08/11 03:12:08;;;;;;;11.73;9.50;;;17.30;99.90;;;;;;4878213;29;20045;-69
2023/08/11 03:14:37;;;;;;;10.00;8.65;;;17.30;99.90;;;;;;4883249;29;20048;-69
2023/08/11 03:17:06;;;;;;;11.70;9.32;;;17.20;99.90;;;;;;4880609;29;20049;-69
2023/08/11 03:19:32;;;;;;;10.38;8.95;;;17.30;99.90;;;;;;4881104;29;20053;-70
2023/08/11 03:21:59;;;;;;;15.30;9.40;;;17.20;99.90;;;;;;4888446;29;20112;-70
2023/08/11 03:24:25;;;;;;;12.07;9.38;;;17.30;99.90;;;;;;4889704;29;20176;-69
2023/08/11 03:26:51;;;;;;;15.90;9.07;;;17.20;99.90;;;;;;4891309;29;20351;-68
2023/08/11 03:29:16;;;;;;;10.55;8.85;;;17.20;99.90;;;;;;4890859;29;20497;-69
2023/08/11 03:31:43;;;;;;;11.07;8.45;;;17.20;99.90;;;;;;4883061;29;20041;-70
2023/08/11 03:34:08;;;;;;;10.70;9.07;;;17.20;99.90;;;;;;4895186;29;20060;-70
2023/08/11 03:36:34;;;;;;;11.80;8.10;;;17.20;99.90;;;;;;4891618;29;20044;-70
2023/08/11 03:39:00;;;;;;;11.30;8.07;;;17.10;99.90;;;;;;4887434;29;20048;-70
2023/08/11 03:41:26;;;;;;;12.70;8.23;;;17.10;99.90;;;;;;4882141;29;20383;-69
2023/08/11 03:43:52;;;;;;;9.55;8.07;;;17.20;99.90;;;;;;4896386;29;20052;-70
2023/08/11 03:46:17;;;;;;;12.20;7.68;;;17.10;99.90;;;;;;4879587;29;20048;-70
2023/08/11 03:48:43;;;;;;;10.52;8.50;;;17.10;99.90;;;;;;4885595;29;20062;-70
2023/08/11 03:51:09;;;;;;;9.05;7.82;;;17.10;99.90;;;;;;4878279;29;20053;-70
2023/08/11 03:53:36;;;;;;;10.45;7.93;;;17.10;99.90;;;;;;4885577;29;20059;-78
2023/08/11 03:56:07;;;;;;;11.30;7.75;;;17.10;99.90;;;;;;4888889;29;20053;-69
2023/08/11 03:58:39;;;;;;;10.82;7.63;;;17.10;99.90;;;;;;4883184;29;20056;-70
2023/08/11 04:01:05;;;;;;;10.02;7.53;;;17.10;99.90;;;;;;4887149;29;20080;-69
2023/08/11 04:03:31;;;;;;;14.82;7.85;;;17.10;99.90;;;;;;4876469;29;20078;-70
2023/08/11 04:06:01;;;;;;;10.98;7.95;;;17.10;99.90;;;;;;4876779;29;20168;-69
2023/08/11 04:08:27;;;;;;;16.90;8.15;;;17.10;99.90;;;;;;4888342;29;20409;-70
2023/08/11 04:10:54;;;;;;;14.10;7.40;;;17.10;99.90;;;;;;4860453;29;20073;-69
2023/08/11 04:13:20;;;;;;;10.43;7.05;;;17.10;99.90;;;;;;4876157;29;20447;-71
2023/08/11 04:15:49;;;;;;;9.32;6.97;;;17.10;99.90;;;;;;4866890;29;20045;-69
2023/08/11 04:18:15;;;;;;;11.57;7.72;;;17.10;99.90;;;;;;4873756;29;20060;-69
2023/08/11 04:20:41;;;;;;;14.18;7.15;;;17.10;99.90;;;;;;4875543;29;20045;-71
2023/08/11 04:23:07;;;;;;;7.78;6.65;;;17.10;99.90;;;;;;4877696;29;20049;-69
2023/08/11 04:25:33;;;;;;;12.00;7.40;;;17.20;99.90;;;;;;4872981;29;20395;-69
2023/08/11 04:28:00;;;;;;;11.35;7.45;;;17.20;99.90;;;;;;4882610;29;20047;-69
2023/08/11 04:30:26;;;;;;;10.90;6.68;;;17.20;99.90;;;;;;4889685;29;20067;-70
2023/08/11 04:32:52;;;;;;;8.90;6.75;;;17.20;99.90;;;;;;4891643;29;20056;-70
2023/08/11 04:35:18;;;;;;;10.25;7.55;;;17.20;99.90;;;;;;4896455;29;20112;-69
2023/08/11 04:37:44;;;;;;;8.15;6.15;;;17.20;99.90;;;;;;4882686;29;20049;-69
2023/08/11 04:40:11;;;;;;;8.88;6.28;;;17.20;99.90;;;;;;4879377;29;20097;-69
2023/08/11 04:42:37;;;;;;;11.43;6.70;;;17.20;99.90;;;;;;4879309;29;20088;-70
2023/08/11 04:45:04;;;;;;;9.40;6.63;;;17.20;99.90;;;;;;4878881;29;20073;-71
2023/08/11 04:47:29;;;;;;;10.27;5.97;;;17.30;99.90;;;;;;4880226;29;20116;-68
2023/08/11 04:49:55;;;;;;;7.82;6.50;;;17.30;99.90;;;;;;4878830;29;20148;-69
2023/08/11 04:52:22;;;;;;;10.27;6.35;;;17.30;99.90;;;;;;4888097;29;20499;-70
2023/08/11 04:54:47;;;;;;;12.93;6.72;;;17.40;99.90;;;;;;4850205;29;20131;-69
2023/08/11 04:57:13;;;;;;;8.05;6.47;;;17.40;99.90;;;;;;4879070;29;20184;-69
2023/08/11 04:59:39;;;;;;;8.10;6.18;;;17.40;99.90;;;;;;4870492;29;20127;-69
2023/08/11 05:02:05;;;;;;;11.55;7.28;;;17.50;99.90;;;;;;4881503;29;20040;-68
2023/08/11 05:04:30;;;;;;;9.85;6.55;;;17.50;99.90;;;;;;4880162;29;20049;-71
2023/08/11 05:06:56;;;;;;;8.48;6.70;;;17.50;99.90;;;;;;4879291;29;20045;-69
2023/08/11 05:09:22;;;;;;;9.18;6.68;;;17.50;99.90;;;;;;4879529;29;20064;-73
2023/08/11 05:11:47;;;;;;;8.75;6.80;;;17.60;99.90;;;;;;4878652;29;20052;-72
2023/08/11 05:14:15;;;;;;;7.60;6.50;;;17.60;99.90;;;;;;4881202;29;20057;-70
2023/08/11 05:16:41;;;;;;;8.38;6.35;;;17.60;99.90;;;;;;4878849;29;20053;-75
2023/08/11 05:19:07;;;;;;;8.25;6.63;;;17.70;99.90;;;;;;4879045;29;20055;-73
2023/08/11 05:21:33;;;;;;;10.23;6.28;;;17.80;99.90;;;;;;4878888;29;20105;-73
2023/08/11 05:23:58;;;;;;;9.68;6.38;;;17.80;99.90;;;;;;4888860;29;20066;-72
2023/08/11 05:26:24;;;;;;;10.00;6.30;;;17.90;99.90;;;;;;4896869;29;20123;-73
2023/08/11 05:28:50;;;;;;;8.35;5.55;;;18.30;99.90;;;;;;4889998;29;20061;-73
2023/08/11 05:31:16;;;;;;;8.48;6.07;;;19.00;99.90;;;;;;4865610;29;20049;-72
2023/08/11 05:33:41;;;;;;;12.43;6.47;;;19.70;99.90;;;;;;4863888;29;20080;-70
2023/08/11 05:36:07;;;;;;;11.10;6.40;;;20.30;99.90;;;;;;4886265;29;20496;-70
2023/08/11 05:38:33;;;;;;;9.18;5.60;;;20.90;99.90;;;;;;4874865;29;20140;-70
2023/08/11 05:40:58;;;;;;;7.88;5.40;;;21.40;99.90;;;;;;4873082;29;20056;-71
2023/08/11 05:43:24;;;;;;;9.45;5.20;;;21.90;99.90;;;;;;4879840;29;20048;-70
2023/08/11 05:45:50;;;;;;;9.02;5.10;;;22.40;99.90;;;;;;4877875;29;20084;-71
2023/08/11 05:48:16;;;;;;;8.77;5.15;;;22.80;99.90;;;;;;4878740;29;20541;-71
2023/08/11 05:50:45;;;;;;;7.25;5.32;;;23.10;99.90;;;;;;4859475;29;20046;-70
2023/08/11 05:53:11;;;;;;;11.27;5.50;;;23.60;99.90;;;;;;4874176;29;20049;-71
2023/08/11 05:55:38;;;;;;;7.38;5.05;;;24.10;99.90;;;;;;4879202;29;20080;-71
2023/08/11 05:58:03;;;;;;;7.10;5.25;;;24.60;99.90;;;;;;4870930;29;20475;-82
2023/08/11 06:00:29;;;;;;;8.30;5.53;;;25.30;99.90;;;;;;4876389;29;20182;-78
2023/08/11 06:02:55;;;;;;;7.43;4.95;;;25.70;99.90;;;;;;4864392;29;20049;-78
2023/08/11 06:05:24;;;;;;;7.88;5.10;;;26.20;99.90;;;;;;4881325;29;20052;-80
2023/08/11 06:07:50;;;;;;;7.03;4.53;;;26.70;99.90;;;;;;4892230;29;20047;-78
2023/08/11 06:10:16;;;;;;;6.18;4.78;;;26.90;99.70;;;;;;4888741;29;20041;-83
2023/08/11 06:12:41;;;;;;;6.93;4.60;;;27.20;99.40;;;;;;4888946;29;20044;-74
2023/08/11 06:15:08;;;;;;;8.82;4.55;;;27.30;98.60;;;;;;4879735;29;20052;-71
2023/08/11 06:17:36;;;;;;;6.97;4.93;;;27.40;98.70;;;;;;4887418;29;20071;-71
2023/08/11 06:20:03;;;;;;;5.97;4.55;;;27.40;98.80;;;;;;4878427;29;20060;-80
2023/08/11 06:22:29;;;;;;;6.40;4.50;;;27.60;98.40;;;;;;4890187;29;20049;-83
2023/08/11 06:24:55;;;;;;;6.65;4.38;;;27.90;98.40;;;;;;4886392;29;20040;-80
2023/08/11 06:27:20;;;;;;;7.85;4.10;;;27.70;97.30;;;;;;4888731;29;20049;-79
2023/08/11 06:29:46;;;;;;;5.45;4.20;;;28.10;97.50;;;;;;4865427;29;20041;-78
2023/08/11 06:32:12;;;;;;;10.93;4.65;;;28.30;97.20;;;;;;4862260;29;20053;-78
2023/08/11 06:34:37;;;;;;;11.90;4.70;;;28.50;97.00;;;;;;4877449;29;20040;-73
2023/08/11 06:37:03;;;;;;;11.20;3.88;;;28.50;96.70;;;;;;4874519;29;20065;-75
2023/08/11 06:39:29;;;;;;;7.35;4.07;;;28.60;96.60;;;;;;4877544;29;20135;-72
2023/08/11 06:41:55;;;;;;;6.03;4.00;;;28.70;96.60;;;;;;4876965;29;20124;-72
2023/08/11 06:44:20;;;;;;;5.18;3.85;;;28.80;96.30;;;;;;4876105;29;20607;-71
2023/08/11 06:46:46;;;;;;;8.13;4.38;;;28.80;96.30;;;;;;4861807;29;20105;-81
2023/08/11 06:49:12;;;;;;;7.38;4.30;;;28.60;96.00;;;;;;4875615;29;20474;-81
2023/08/11 06:51:37;;;;;;;8.68;3.63;;;28.60;96.10;;;;;;4878122;29;20044;-82
2023/08/11 06:54:03;;;;;;;5.95;3.83;;;28.90;96.20;;;;;;4878011;29;20469;-79
2023/08/11 06:56:29;;;;;;;7.03;3.70;;;29.10;96.00;;;;;;4880537;29;20091;-82
2023/08/11 06:58:55;;;;;;;5.30;3.63;;;29.40;96.00;;;;;;4852756;29;20092;-82
2023/08/11 07:01:21;;;;;;;6.18;3.10;;;29.80;95.50;;;;;;4861316;29;20049;-82
2023/08/11 07:03:47;;;;;;;5.90;3.50;;;30.20;95.50;;;;;;4878332;29;20049;-82
2023/08/11 07:06:13;;;;;;;4.78;3.30;;;30.40;95.30;;;;;;4877859;29;20068;-81
2023/08/11 07:08:39;;;;;;;4.88;3.53;;;31.00;94.70;;;;;;4877553;29;20103;-83
2023/08/11 07:11:05;;;;;;;6.60;3.50;;;31.00;94.10;;;;;;4862634;29;20132;-77
2023/08/11 07:13:32;;;;;;;7.88;3.13;;;31.00;94.20;;;;;;4878111;29;20045;-80
2023/08/11 07:15:58;;;;;;;6.00;3.13;;;31.20;94.00;;;;;;4879276;29;20152;-81
2023/08/11 07:18:24;;;;;;;6.55;3.40;;;31.50;93.70;;;;;;4879562;29;20076;-80
2023/08/11 07:20:50;;;;;;;5.75;3.70;;;31.50;93.00;;;;;;4878645;29;20135;-83
2023/08/11 07:23:16;;;;;;;8.45;3.83;;;31.50;93.20;;;;;;4878354;29;20077;-82
2023/08/11 07:25:43;;;;;;;5.03;3.22;;;31.10;92.60;;;;;;4867349;29;20180;-82
2023/08/11 07:28:09;;;;;;;4.50;3.40;;;31.00;93.20;;;;;;4897674;29;20066;-77
2023/08/11 07:30:36;;;;;;;4.80;2.80;;;30.90;93.20;;;;;;4896810;29;20131;-81
2023/08/11 07:33:02;;;;;;;4.75;3.30;;;30.80;93.20;;;;;;4891924;29;20510;-82
2023/08/11 07:35:28;;;;;;;10.57;3.17;;;31.20;93.10;;;;;;4873393;29;20407;-82
2023/08/11 07:37:54;;;;;;;5.18;3.15;;;31.40;93.10;;;;;;4878241;29;20052;-82
2023/08/11 07:40:20;;;;;;;4.15;2.83;;;31.70;93.00;;;;;;4881943;29;20044;-82
2023/08/11 07:42:46;;;;;;;5.05;3.10;;;31.90;92.40;;;;;;4882023;29;20048;-82
2023/08/11 07:45:12;;;;;;;7.10;2.85;;;31.80;92.50;;;;;;4897195;29;20344;-77
2023/08/11 07:47:38;;;;;;;4.97;3.00;;;32.10;92.40;;;;;;4882380;29;20060;-81
2023/08/11 07:50:05;;;;;;;5.22;3.08;;;32.50;92.30;;;;;;4890198;29;20488;-82
2023/08/11 07:52:30;;;;;;;5.00;2.72;;;33.10;91.90;;;;;;4889929;29;20521;-82
2023/08/11 07:54:56;;;;;;;4.55;3.10;;;33.50;91.70;;;;;;4898598;29;20050;-82
2023/08/11 07:57:23;;;;;;;8.00;3.15;;;33.90;91.60;;;;;;4897249;29;20459;-82
2023/08/11 07:59:49;;;;;;;6.85;3.05;;;34.00;90.90;;;;;;4884691;29;20158;-82
2023/08/11 08:02:15;;;;;;;4.70;3.03;;;34.00;91.00;;;;;;4894383;29;20037;-78
2023/08/11 08:04:42;;;;;;;6.75;3.13;;;34.00;91.00;;;;;;4891502;29;20049;-81
2023/08/11 08:07:08;;;;;;;6.03;2.80;;;34.40;91.00;;;;;;4898517;29;20085;-83
2023/08/11 08:09:35;;;;;;;7.78;2.90;;;34.60;90.50;;;;;;4897839;29;20044;-82
2023/08/11 08:12:01;;;;;;;5.55;2.83;;;34.90;90.30;;;;;;4891703;29;20053;-82
2023/08/11 08:14:28;;;;;;;7.05;3.08;;;35.00;90.00;;;;;;4900754;29;20048;-82
2023/08/11 08:16:54;;;;;;;6.68;2.78;;;35.20;89.10;;;;;;4881391;29;20064;-81
2023/08/11 08:19:20;;;;;;;6.25;2.88;;;35.20;88.70;;;;;;4879038;29;20093;-82
2023/08/11 08:21:47;;;;;;;5.97;2.85;;;35.10;88.70;;;;;;4878910;29;20132;-81
2023/08/11 08:24:14;;;;;;;4.90;2.90;;;35.10;88.50;;;;;;4899481;29;20072;-81
2023/08/11 08:26:40;;;;;;;4.78;2.78;;;34.80;88.20;;;;;;4884258;29;20056;-83
2023/08/11 08:29:06;;;;;;;5.47;2.72;;;34.80;88.50;;;;;;4881825;29;20064;-82
2023/08/11 08:31:33;;;;;;;6.90;2.95;;;35.00;88.70;;;;;;4884647;29;20555;-82
2023/08/11 08:33:59;;;;;;;7.78;2.80;;;35.20;88.70;;;;;;4897151;29;20045;-81
2023/08/11 08:36:25;;;;;;;5.43;2.70;;;35.40;87.90;;;;;;4895322;29;20045;-82
2023/08/11 08:38:52;;;;;;;5.47;3.00;;;35.30;87.40;;;;;;4881272;29;20049;-82
2023/08/11 08:41:27;;;;;;;8.60;3.00;;;35.20;86.90;;;;;;4885371;29;20052;-82
2023/08/11 08:43:55;;;;;;;6.30;3.45;;;35.20;86.30;;;;;;4876662;29;20504;-81
2023/08/11 08:46:23;;;;;;;6.78;2.90;;;34.70;86.40;;;;;;4900874;29;20095;-76
2023/08/11 08:49:23;;;;;;;6.80;2.90;;;34.60;87.20;;;;;;4895700;29;20045;-81
2023/08/11 08:51:49;;;;;;;7.80;3.05;;;34.60;86.90;;;;;;4889993;29;20064;-81
2023/08/11 08:54:15;;;;;;;8.98;3.40;;;34.70;87.00;;;;;;4873926;29;20136;-83
2023/08/11 08:56:41;;;;;;;5.80;2.97;;;34.90;86.90;;;;;;4865288;29;20172;-82
2023/08/11 08:59:07;;;;;;;6.85;3.20;;;34.90;87.00;;;;;;4899393;29;20460;-83
2023/08/11 09:01:37;;;;;;;7.90;3.05;;;35.10;86.30;;;;;;4894234;29;20044;-82
2023/08/11 09:04:06;;;;;;;8.65;3.10;;;35.20;85.70;;;;;;4878163;29;20131;-81
2023/08/11 09:06:33;;;;;;;5.72;2.90;;;35.30;86.40;;;;;;4894937;29;20104;-82
2023/08/11 09:09:01;;;;;;;5.47;2.70;;;35.60;86.50;;;;;;4902783;29;20056;-82
2023/08/11 09:11:27;;;;;;;6.00;2.47;;;35.50;86.00;;;;;;4900457;29;20075;-82
2023/08/11 09:13:53;;;;;;;5.03;2.70;;;35.60;85.50;;;;;;4896193;29;20464;-80
2023/08/11 09:16:23;;;;;;;7.05;3.03;;;35.60;86.10;;;;;;4892291;29;20048;-83
2023/08/11 09:18:49;;;;;;;5.05;3.05;;;35.70;85.70;;;;;;4899345;29;20059;-82
2023/08/11 09:21:16;;;;;;;6.25;3.03;;;35.50;84.30;;;;;;4900928;29;20120;-82
2023/08/11 09:23:43;;;;;;;7.68;3.15;;;35.60;84.30;;;;;;4898114;29;20060;-82
2023/08/11 09:26:09;;;;;;;5.90;3.30;;;35.30;83.80;;;;;;4884933;29;20075;-83
2023/08/11 09:28:35;;;;;;;5.95;3.00;;;35.20;84.80;;;;;;4889437;29;20056;-82
2023/08/11 09:31:01;;;;;;;7.55;2.90;;;35.50;84.60;;;;;;4900160;29;20044;-82
2023/08/11 09:33:28;;;;;;;6.65;3.30;;;35.40;84.70;;;;;;4882821;29;20061;-79
2023/08/11 09:35:53;;;;;;;5.00;3.15;;;35.10;84.40;;;;;;4879306;29;20184;-82
2023/08/11 09:38:19;;;;;;;5.85;3.10;;;35.10;84.40;;;;;;4898006;29;20092;-82
2023/08/11 09:40:51;;;;;;;4.10;2.85;;;34.80;85.10;;;;;;4882174;29;20052;-83
2023/08/11 09:43:17;;;;;;;6.82;2.60;;;34.70;84.50;;;;;;4896110;29;20056;-82
2023/08/11 09:45:42;;;;;;;5.82;2.60;;;34.50;84.70;;;;;;4895968;29;20181;-83
2023/08/11 09:48:08;;;;;;;10.52;2.95;;;34.40;84.90;;;;;;4898145;29;20053;-82
2023/08/11 09:50:39;;;;;;;6.35;2.60;;;34.00;85.50;;;;;;4897418;29;20439;-82
2023/08/11 09:53:05;;;;;;;6.65;3.00;;;33.80;85.90;;;;;;4880398;29;20049;-83
2023/08/11 09:55:34;;;;;;;7.97;3.05;;;33.50;86.50;;;;;;4894699;29;20053;-80
2023/08/11 09:58:02;;;;;;;5.80;2.90;;;33.10;86.50;;;;;;4898170;29;20045;-82
2023/08/11 10:00:30;;;;;;;4.45;2.60;;;32.90;86.80;;;;;;4901218;29;20104;-83
2023/08/11 10:03:01;;;;;;;5.88;2.80;;;32.50;88.40;;;;;;4889504;29;20119;-82
2023/08/11 10:05:29;;;;;;;5.05;2.72;;;32.10;88.80;;;;;;4887502;29;20041;-81
2023/08/11 10:07:57;;;;;;;4.57;2.70;;;31.80;89.20;;;;;;4888354;29;20053;-81
2023/08/11 10:10:23;;;;;;;4.10;2.50;;;31.60;89.20;;;;;;4895697;29;20055;-81
2023/08/11 10:12:58;;;;;;;5.13;2.90;;;31.50;89.90;;;;;;4889365;29;20081;-81
2023/08/11 10:15:27;;;;;;;9.65;3.10;;;31.50;89.50;;;;;;4888843;29;20116;-82
2023/08/11 10:17:53;;;;;;;4.97;2.42;;;31.50;89.40;;;;;;4888998;29;20049;-81
2023/08/11 10:20:20;;;;;;;4.90;2.45;;;31.60;90.00;;;;;;4893162;29;20061;-82
2023/08/11 10:22:46;;;;;;;6.97;2.83;;;31.50;90.00;;;;;;4898374;29;20455;-83
2023/08/11 10:25:13;;;;;;;4.68;2.83;;;31.50;89.60;;;;;;4882791;29;20067;-81
2023/08/11 10:27:39;;;;;;;4.95;2.50;;;31.40;90.10;;;;;;4885998;29;20045;-82
2023/08/11 10:30:07;;;;;;;3.85;2.40;;;31.40;90.00;;;;;;4888148;29;20080;-83
2023/08/11 10:32:34;;;;;;;5.15;2.63;;;31.30;89.90;;;;;;4892250;29;20048;-78
2023/08/11 10:34:59;;;;;;;5.80;2.67;;;31.30;89.80;;;;;;4897425;29;20136;-82
2023/08/11 10:37:30;;;;;;;4.97;2.75;;;31.10;90.10;;;;;;4891122;29;20076;-81
2023/08/11 10:40:04;;;;;;;5.88;2.55;;;31.20;90.00;;;;;;4876353;29;20124;-81
2023/08/11 10:42:31;;;;;;;5.18;2.90;;;31.10;90.10;;;;;;4864075;29;20057;-81
2023/08/11 10:45:11;;;;;;;5.15;2.60;;;31.10;90.20;;;;;;4894970;29;20448;-82
2023/08/11 10:47:53;;;;;;;4.32;2.60;;;31.30;90.40;;;;;;4897392;29;20067;-77
2023/08/11 10:50:22;;;;;;;5.27;2.47;;;31.40;90.60;;;;;;4865356;29;20045;-81
2023/08/11 10:53:06;;;;;;;6.65;2.70;;;31.30;90.30;;;;;;4889905;29;20060;-80
2023/08/11 10:55:41;;;;;;;3.92;2.45;;;31.20;90.10;;;;;;4858241;29;20079;-80
2023/08/11 10:58:10;;;;;;;4.97;2.30;;;31.10;90.20;;;;;;4867623;29;20136;-80
2023/08/11 11:00:36;;;;;;;3.90;2.60;;;30.90;90.40;;;;;;4872814;29;20044;-78
2023/08/11 11:03:02;;;;;;;8.70;2.42;;;30.90;90.60;;;;;;4893567;29;20468;-82
2023/08/11 11:05:28;;;;;;;8.25;2.78;;;30.80;90.40;;;;;;4895094;29;20067;-82
2023/08/11 11:07:54;;;;;;;5.45;2.60;;;30.70;90.40;;;;;;4873165;29;20127;-82
2023/08/11 11:10:20;;;;;;;6.53;2.42;;;30.70;90.70;;;;;;4880626;29;21836;-82
2023/08/11 11:12:45;;;;;;;5.00;2.47;;;30.70;90.90;;;;;;4870704;29;20083;-81
2023/08/11 11:15:11;;;;;;;4.80;2.70;;;30.70;91.10;;;;;;4896669;29;20060;-81
2023/08/11 11:17:37;;;;;;;7.97;2.67;;;30.80;91.30;;;;;;4868978;29;20052;-81
2023/08/11 11:20:05;;;;;;;4.25;2.60;;;30.80;90.80;;;;;;4877177;29;20048;-82
2023/08/11 11:22:30;;;;;;;6.07;2.65;;;30.80;91.00;;;;;;4895807;29;20052;-81
2023/08/11 11:25:02;;;;;;;5.82;2.67;;;30.80;90.70;;;;;;4896833;29;20095;-81
2023/08/11 11:27:28;;;;;;;5.43;2.45;;;30.80;90.40;;;;;;4896874;29;20123;-83
2023/08/11 11:30:00;;;;;;;4.32;2.63;;;30.80;90.60;;;;;;4871316;29;20056;-82
2023/08/11 11:32:27;;;;;;;5.82;2.50;;;30.70;90.30;;;;;;4878690;29;20052;-83
2023/08/11 11:34:54;;;;;;;6.43;2.53;;;30.60;90.40;;;;;;4895606;29;20044;-82
2023/08/11 11:37:20;;;;;;;9.90;3.00;;;30.60;90.70;;;;;;4898162;29;20068;-83
2023/08/11 11:39:46;;;;;;;4.63;2.33;;;30.60;90.80;;;;;;4894308;29;20484;-82
2023/08/11 11:42:11;;;;;;;6.43;2.47;;;30.80;90.60;;;;;;4879636;29;20053;-82
2023/08/11 11:44:37;;;;;;;5.07;2.70;;;30.80;91.00;;;;;;4879372;29;20048;-80
2023/08/11 11:47:04;;;;;;;6.00;2.83;;;30.80;90.70;;;;;;4880123;29;20056;-80
2023/08/11 11:49:33;;;;;;;5.97;2.38;;;30.60;90.60;;;;;;4899692;29;20096;-81
2023/08/11 11:52:00;;;;;;;5.07;2.63;;;30.50;90.70;;;;;;4892576;29;20048;-82
2023/08/11 11:54:30;;;;;;;5.28;2.28;;;30.40;90.90;;;;;;4888343;29;20059;-82
2023/08/11 11:56:59;;;;;;;5.05;2.50;;;30.40;91.10;;;;;;4898377;29;20407;-82
2023/08/11 11:59:28;;;;;;;6.13;2.80;;;30.50;91.20;;;;;;4886026;29;20063;-82
2023/08/11 12:02:00;;;;;;;6.90;2.90;;;30.60;90.90;;;;;;4892954;29;20052;-82
2023/08/11 12:04:26;;;;;;;6.05;2.78;;;30.50;91.30;;;;;;4884744;29;20049;-83
2023/08/11 12:06:52;;;;;;;5.97;2.50;;;30.30;91.30;;;;;;4871603;29;20053;-82
2023/08/11 12:09:19;;;;;;;6.85;2.58;;;30.30;91.40;;;;;;4892334;29;20123;-81
2023/08/11 12:11:45;;;;;;;5.38;2.30;;;30.40;91.10;;;;;;4898599;29;20044;-82
2023/08/11 12:14:13;;;;;;;6.63;2.30;;;30.50;91.20;;;;;;4884391;29;20056;-81
2023/08/11 12:16:39;;;;;;;6.22;2.53;;;30.40;90.90;;;;;;4899280;29;20495;-81
2023/08/11 12:19:06;;;;;;;5.85;2.30;;;30.40;91.00;;;;;;4892627;29;20057;-81
2023/08/11 12:21:32;;;;;;;4.60;2.40;;;30.50;91.00;;;;;;4890494;29;20056;-80
2023/08/11 12:23:58;;;;;;;4.72;2.75;;;30.60;91.30;;;;;;4881179;29;20059;-81
2023/08/11 12:26:24;;;;;;;4.40;2.40;;;30.70;91.10;;;;;;4900175;29;20053;-82
2023/08/11 12:28:49;;;;;;;5.72;2.50;;;30.80;91.30;;;;;;4885410;29;20052;-77
2023/08/11 12:31:15;;;;;;;4.30;2.70;;;30.90;91.30;;;;;;4881323;29;20045;-81
2023/08/11 12:33:41;;;;;;;5.90;2.70;;;30.90;91.20;;;;;;4891749;29;20059;-80
2023/08/11 12:36:08;;;;;;;6.50;2.20;;;30.80;91.20;;;;;;4899940;29;20104;-81
2023/08/11 12:38:35;;;;;;;4.85;2.50;;;30.80;91.20;;;;;;4900454;29;20059;-81
2023/08/11 12:41:00;;;;;;;7.00;2.65;;;30.70;91.10;;;;;;4887735;29;20430;-83
2023/08/11 12:43:26;;;;;;;6.90;2.70;;;30.60;91.20;;;;;;4894806;29;20132;-80
2023/08/11 12:45:52;;;;;;;4.70;2.65;;;30.50;91.60;;;;;;4880119;29;20065;-76